Time;durP1;ratioP1;P1;durP2;ratioP2;P2;SDS_P1;SDS_P2;PMS_P1;PMS_P2;Temp;Humidity;BMP_temperature;BMP_pressure;BME280_temperature;BME280_humidity;BME280_pressure;Samples;Min_cycle;Max_cycle;Signal;HPM_P1;HPM_P2
2022/02/27 00:00:29;;;;;;;8.3;3.3;;;;;;;;;;;;;
2022/02/27 00:02:57;;;;;;;8;4.2;;;;;;;;;;;;;
2022/02/27 00:05:29;;;;;;;7.8;3.6;;;;;;;;;;;;;
2022/02/27 00:07:57;;;;;;;6.8;3.4;;;;;;;;;;;;;
2022/02/27 00:10:54;;;;;;;7.3;3.5;;;;;;;;;;;;;
2022/02/27 00:13:23;;;;;;;6.5;3.6;;;;;;;;;;;;;
2022/02/27 00:15:52;;;;;;;5.9;3.3;;;;;;;;;;;;;
2022/02/27 00:18:21;;;;;;;6.9;3.2;;;;;;;;;;;;;
2022/02/27 00:20:51;;;;;;;7.6;3.6;;;;;;;;;;;;;
2022/02/27 00:23:20;;;;;;;9;4.3;;;;;;;;;;;;;
2022/02/27 00:25:49;;;;;;;12.7;4.9;;;;;;;;;;;;;
2022/02/27 00:28:19;;;;;;;13.2;6.2;;;;;;;;;;;;;
2022/02/27 00:30:47;;;;;;;12;6.4;;;;;;;;;;;;;
2022/02/27 00:33:17;;;;;;;11.3;5.9;;;;;;;;;;;;;
2022/02/27 00:35:46;;;;;;;11.7;6.9;;;;;;;;;;;;;
2022/02/27 00:38:15;;;;;;;15;7.2;;;;;;;;;;;;;
2022/02/27 00:40:44;;;;;;;11.3;5.6;;;;;;;;;;;;;
2022/02/27 00:43:13;;;;;;;10.7;5.4;;;;;;;;;;;;;
2022/02/27 00:45:41;;;;;;;9.6;5.6;;;;;;;;;;;;;
2022/02/27 00:48:10;;;;;;;9.5;5.5;;;;;;;;;;;;;
2022/02/27 00:50:39;;;;;;;10.2;5.8;;;;;;;;;;;;;
2022/02/27 00:53:08;;;;;;;9.5;5.5;;;;;;;;;;;;;
2022/02/27 00:55:37;;;;;;;10.9;5.8;;;;;;;;;;;;;
2022/02/27 00:58:05;;;;;;;11.3;5.8;;;;;;;;;;;;;
2022/02/27 01:00:34;;;;;;;12.7;5.9;;;;;;;;;;;;;
2022/02/27 01:03:03;;;;;;;11.5;5.6;;;;;;;;;;;;;
2022/02/27 01:05:32;;;;;;;8.9;4.4;;;;;;;;;;;;;
2022/02/27 01:08:01;;;;;;;7;3.3;;;;;;;;;;;;;
2022/02/27 01:10:30;;;;;;;8.2;3.6;;;;;;;;;;;;;
2022/02/27 01:12:59;;;;;;;11.4;4.4;;;;;;;;;;;;;
2022/02/27 01:15:28;;;;;;;7.6;4.2;;;;;;;;;;;;;
2022/02/27 01:18:00;;;;;;;7.7;4.1;;;;;;;;;;;;;
2022/02/27 01:20:29;;;;;;;8.9;4.4;;;;;;;;;;;;;
2022/02/27 01:22:57;;;;;;;7.5;4.6;;;;;;;;;;;;;
2022/02/27 01:25:26;;;;;;;7;4.3;;;;;;;;;;;;;
2022/02/27 01:27:55;;;;;;;8.5;4.7;;;;;;;;;;;;;
2022/02/27 01:30:24;;;;;;;9.9;5;;;;;;;;;;;;;
2022/02/27 01:32:53;;;;;;;6.4;3.8;;;;;;;;;;;;;
2022/02/27 01:35:22;;;;;;;5.8;3.2;;;;;;;;;;;;;
2022/02/27 01:37:51;;;;;;;8.2;3.5;;;;;;;;;;;;;
2022/02/27 01:40:19;;;;;;;6.6;3;;;;;;;;;;;;;
2022/02/27 01:42:48;;;;;;;7.1;3.2;;;;;;;;;;;;;
2022/02/27 01:45:17;;;;;;;6.7;2.6;;;;;;;;;;;;;
2022/02/27 01:47:46;;;;;;;6;2.7;;;;;;;;;;;;;
2022/02/27 01:50:15;;;;;;;4.2;2.3;;;;;;;;;;;;;
2022/02/27 01:52:43;;;;;;;7;3.1;;;;;;;;;;;;;
2022/02/27 01:55:25;;;;;;;5.7;3;;;;;;;;;;;;;
2022/02/27 01:57:54;;;;;;;5.8;3;;;;;;;;;;;;;
2022/02/27 02:00:23;;;;;;;9.5;3.6;;;;;;;;;;;;;
2022/02/27 02:02:52;;;;;;;8.4;4.6;;;;;;;;;;;;;
2022/02/27 02:05:21;;;;;;;11.2;5.2;;;;;;;;;;;;;
2022/02/27 02:07:50;;;;;;;12.7;6.9;;;;;;;;;;;;;
2022/02/27 02:10:19;;;;;;;10.2;5.2;;;;;;;;;;;;;
2022/02/27 02:12:48;;;;;;;8.4;4.4;;;;;;;;;;;;;
2022/02/27 02:15:16;;;;;;;10.6;4.1;;;;;;;;;;;;;
2022/02/27 02:17:45;;;;;;;6.9;4.1;;;;;;;;;;;;;
2022/02/27 02:20:14;;;;;;;9.1;4.3;;;;;;;;;;;;;
2022/02/27 02:22:42;;;;;;;8.2;4.4;;;;;;;;;;;;;
2022/02/27 02:25:08;;;;;;;6.7;3.6;;;;;;;;;;;;;
2022/02/27 02:27:33;;;;;;;8.4;4.7;;;;;;;;;;;;;
2022/02/27 02:30:03;;;;;;;7.6;4;;;;;;;;;;;;;
2022/02/27 02:32:28;;;;;;;7;4;;;;;;;;;;;;;
2022/02/27 02:34:58;;;;;;;5.5;3.4;;;;;;;;;;;;;
2022/02/27 02:37:26;;;;;;;8.3;3.9;;;;;;;;;;;;;
2022/02/27 02:39:53;;;;;;;5.6;3.7;;;;;;;;;;;;;
2022/02/27 02:42:17;;;;;;;7.1;3.4;;;;;;;;;;;;;
2022/02/27 02:44:43;;;;;;;7.7;3.6;;;;;;;;;;;;;
2022/02/27 02:47:08;;;;;;;7.1;4.1;;;;;;;;;;;;;
2022/02/27 02:49:33;;;;;;;8.3;4;;;;;;;;;;;;;
2022/02/27 02:51:59;;;;;;;7.1;3.5;;;;;;;;;;;;;
2022/02/27 02:54:25;;;;;;;7.7;3.8;;;;;;;;;;;;;
2022/02/27 02:56:50;;;;;;;8;3.9;;;;;;;;;;;;;
2022/02/27 02:59:15;;;;;;;7.1;3.7;;;;;;;;;;;;;
2022/02/27 03:01:41;;;;;;;6.4;3.6;;;;;;;;;;;;;
2022/02/27 03:04:07;;;;;;;7.6;4.4;;;;;;;;;;;;;
2022/02/27 03:06:33;;;;;;;10.9;4.2;;;;;;;;;;;;;
2022/02/27 03:08:59;;;;;;;9.6;4.2;;;;;;;;;;;;;
2022/02/27 03:11:24;;;;;;;9.7;3.7;;;;;;;;;;;;;
2022/02/27 03:13:51;;;;;;;8.3;3.5;;;;;;;;;;;;;
2022/02/27 03:16:16;;;;;;;6;3.3;;;;;;;;;;;;;
2022/02/27 03:18:43;;;;;;;7;3.8;;;;;;;;;;;;;
2022/02/27 03:21:08;;;;;;;9.8;4.8;;;;;;;;;;;;;
2022/02/27 03:23:33;;;;;;;8.2;4.1;;;;;;;;;;;;;
2022/02/27 03:25:58;;;;;;;10.8;4;;;;;;;;;;;;;
2022/02/27 03:28:25;;;;;;;8.1;3.9;;;;;;;;;;;;;
2022/02/27 03:30:50;;;;;;;6.8;3.5;;;;;;;;;;;;;
2022/02/27 03:33:17;;;;;;;6.1;3.2;;;;;;;;;;;;;
2022/02/27 03:35:42;;;;;;;5.8;3.2;;;;;;;;;;;;;
2022/02/27 03:38:08;;;;;;;7.6;3.6;;;;;;;;;;;;;
2022/02/27 03:40:33;;;;;;;6.6;3.7;;;;;;;;;;;;;
2022/02/27 03:42:58;;;;;;;5.8;2.9;;;;;;;;;;;;;
2022/02/27 03:45:23;;;;;;;5.6;3;;;;;;;;;;;;;
2022/02/27 03:47:49;;;;;;;5.2;3;;;;;;;;;;;;;
2022/02/27 03:50:14;;;;;;;4.4;2.6;;;;;;;;;;;;;
2022/02/27 03:52:40;;;;;;;6.4;3.3;;;;;;;;;;;;;
2022/02/27 03:55:05;;;;;;;6.9;3.1;;;;;;;;;;;;;
2022/02/27 03:57:32;;;;;;;7.7;3.1;;;;;;;;;;;;;
2022/02/27 03:59:57;;;;;;;7.5;3.5;;;;;;;;;;;;;
2022/02/27 04:02:33;;;;;;;4.7;3.1;;;;;;;-2.94;81.00586;948.2778;;;;
2022/02/27 04:05:04;;;;;;;7.8;3.2;;;;;;;-3.04;81.39551;948.2453;;;;
2022/02/27 04:07:34;;;;;;;5.9;3.5;;;;;;;-2.85;80.73535;948.3708;;;;
2022/02/27 04:10:05;;;;;;;7;3.5;;;;;;;-3.08;81.8291;948.3762;;;;
2022/02/27 04:12:30;;;;;;;6;3.7;;;;;;;-3.03;81.51953;948.3505;;;;
2022/02/27 04:15:01;;;;;;;8.9;3.8;;;;;;;-3.01;81.28906;948.3922;;;;
2022/02/27 04:17:30;;;;;;;6.8;3.7;;;;;;;-2.77;80.70703;948.3773;;;;
2022/02/27 04:19:54;;;;;;;8;3.1;;;;;;;-2.72;80.29492;948.467;;;;
2022/02/27 04:22:19;;;;;;;6.3;3.1;;;;;;;-2.73;80.09277;948.3967;;;;
2022/02/27 04:24:48;;;;;;;5.3;3.3;;;;;;;-2.74;80.11426;948.2913;;;;
2022/02/27 04:27:13;;;;;;;6.6;3.7;;;;;;;-2.83;80.14355;948.3645;;;;
2022/02/27 04:29:45;;;;;;;9.5;3.3;;;;;;;-2.83;80.07715;948.3397;;;;
2022/02/27 04:32:13;;;;;;;5.9;3.1;;;;;;;-2.85;80.11621;948.3995;;;;
2022/02/27 04:34:44;;;;;;;6.9;3.2;;;;;;;-3.31;81.67676;948.3531;;;;
2022/02/27 04:37:09;;;;;;;4.5;2.4;;;;;;;-3;80.36523;948.3884;;;;
2022/02/27 04:39:40;;;;;;;4.4;2.1;;;;;;;-2.78;79.65234;948.295;;;;
2022/02/27 04:42:11;;;;;;;4.4;2;;;;;;;-2.62;79.2627;948.2578;;;;
2022/02/27 04:44:43;;;;;;;5.8;2.4;;;;;;;-2.39;77.87988;948.2508;;;;
2022/02/27 04:47:11;;;;;;;5.5;2.4;;;;;;;-2.45;77.88867;948.2195;;;;
2022/02/27 04:49:36;;;;;;;5.1;2.3;;;;;;;-2.7;78.68457;948.2335;;;;
2022/02/27 04:52:08;;;;;;;4.6;2.4;;;;;;;-2.81;79.37012;948.2441;;;;
2022/02/27 04:54:41;;;;;;;5;2.7;;;;;;;-2.61;78.5;948.2119;;;;
2022/02/27 04:57:08;;;;;;;5.5;2.5;;;;;;;-2.79;78.92188;948.0402;;;;
2022/02/27 04:59:33;;;;;;;5.1;2.7;;;;;;;-2.74;79.2627;948.204;;;;
2022/02/27 05:02:06;;;;;;;6;2.5;;;;;;;-2.56;78.37793;948.1501;;;;
2022/02/27 05:04:36;;;;;;;6.5;2.5;;;;;;;-2.95;79.7207;948.1602;;;;
2022/02/27 05:07:02;;;;;;;6.8;2.9;;;;;;;-3.23;81.59082;948.1462;;;;
2022/02/27 05:09:32;;;;;;;6.5;2.7;;;;;;;-2.92;80.52246;948.1355;;;;
2022/02/27 05:12:06;;;;;;;8;2.7;;;;;;;-2.75;79.63672;948.1436;;;;
2022/02/27 05:14:31;;;;;;;5.2;2.6;;;;;;;-2.88;79.30371;948.1588;;;;
2022/02/27 05:17:07;;;;;;;6.8;2.5;;;;;;;-3.18;80.51855;948.0891;;;;
2022/02/27 05:19:32;;;;;;;6.8;2.7;;;;;;;-3.36;81.00293;948.1889;;;;
2022/02/27 05:21:58;;;;;;;7.5;2.9;;;;;;;-3.17;80.5957;948.1418;;;;
2022/02/27 05:24:23;;;;;;;21.2;19;;;;;;;-3.31;80.57129;948.1212;;;;
2022/02/27 05:26:57;;;;;;;7.2;3.9;;;;;;;-3.39;81.33887;948.2255;;;;
2022/02/27 05:29:22;;;;;;;7.4;3.7;;;;;;;-3.34;81.36035;948.2455;;;;
2022/02/27 05:31:47;;;;;;;6.4;3.2;;;;;;;-3.41;81.48926;948.2335;;;;
2022/02/27 05:34:22;;;;;;;7.2;2.9;;;;;;;-3.51;81.79102;948.2339;;;;
2022/02/27 05:36:47;;;;;;;5.7;2.5;;;;;;;-3.28;80.85254;948.2107;;;;
2022/02/27 05:39:14;;;;;;;5.3;2.8;;;;;;;-3.31;81.33203;948.2874;;;;
2022/02/27 05:41:42;;;;;;;8.3;3;;;;;;;-3.31;81.32129;948.2812;;;;
2022/02/27 05:44:04;;;;;;;4.3;2.5;;;;;;;-3.41;81.39063;948.2967;;;;
2022/02/27 05:46:29;;;;;;;6.6;3.1;;;;;;;-3.29;81.00586;948.2598;;;;
2022/02/27 05:48:54;;;;;;;5.2;2.7;;;;;;;-3.51;81.16113;948.4052;;;;
2022/02/27 05:51:25;;;;;;;8.4;3.3;;;;;;;-3.27;80.66504;948.4519;;;;
2022/02/27 05:53:50;;;;;;;6.9;3.1;;;;;;;-3.19;79.99512;948.4506;;;;
2022/02/27 05:56:16;;;;;;;5.5;3.1;;;;;;;-3.35;80.19629;948.4353;;;;
2022/02/27 05:58:44;;;;;;;7.7;3.6;;;;;;;-3.14;79.83789;948.4095;;;;
2022/02/27 06:01:09;;;;;;;7;3.2;;;;;;;-3.31;79.85254;948.498;;;;
2022/02/27 06:03:37;;;;;;;8.5;3.9;;;;;;;-3.35;80.3623;948.4717;;;;
2022/02/27 06:06:07;;;;;;;7;2.8;;;;;;;-3.3;80.31738;948.553;;;;
2022/02/27 06:08:33;;;;;;;5;2.8;;;;;;;-3.16;79.79199;948.5387;;;;
2022/02/27 06:11:04;;;;;;;7.5;2.9;;;;;;;-2.98;79.03027;948.5962;;;;
2022/02/27 06:13:29;;;;;;;5.8;3.2;;;;;;;-2.9;78.83496;948.5914;;;;
2022/02/27 06:16:16;;;;;;;4.6;2.5;;;;;;;-2.8;78.20117;948.6016;;;;
2022/02/27 06:18:46;;;;;;;5.8;2.8;;;;;;;-2.88;77.6543;948.6138;;;;
2022/02/27 06:21:17;;;;;;;5;2.7;;;;;;;-2.95;78.4043;948.6401;;;;
2022/02/27 06:23:47;;;;;;;6.7;2.9;;;;;;;-2.79;78.26953;948.6138;;;;
2022/02/27 06:26:17;;;;;;;4.3;3;;;;;;;-2.65;77.2666;948.7128;;;;
2022/02/27 06:28:48;;;;;;;6.5;3;;;;;;;-2.79;76.75293;948.6877;;;;
2022/02/27 06:31:20;;;;;;;5.9;2.6;;;;;;;-2.84;77.52832;948.778;;;;
2022/02/27 06:33:46;;;;;;;8.2;2.5;;;;;;;-2.86;78.00098;948.8039;;;;
2022/02/27 06:36:19;;;;;;;9.6;4;;;;;;;-2.21;80.7041;948.7817;;;;
2022/02/27 06:38:44;;;;;;;7;2.3;;;;;;;-1.1;76.30664;948.795;;;;
2022/02/27 06:41:12;;;;;;;12.3;4.8;;;;;;;0.01;70.55957;948.6932;;;;
2022/02/27 06:43:35;;;;;;;15.2;6.1;;;;;;;0.66;66.40625;948.6866;;;;
2022/02/27 06:46:07;;;;;;;12.3;4;;;;;;;0.86;64.34863;948.7256;;;;
2022/02/27 06:48:31;;;;;;;6.6;2.6;;;;;;;1.25;63.34766;948.6735;;;;
2022/02/27 06:51:03;;;;;;;6.1;2.5;;;;;;;1.21;62.23535;948.7017;;;;
2022/02/27 06:54:08;;;;;;;6.2;2.5;;;;;;;1.05;62.85059;948.6378;;;;
2022/02/27 06:56:38;;;;;;;6.3;2.5;;;;;;;1.27;61.85352;948.6261;;;;
2022/02/27 06:59:03;;;;;;;4.8;2;;;;;;;1.7;60.08105;948.668;;;;
2022/02/27 07:01:28;;;;;;;3.6;2;;;;;;;2.23;57.09961;948.6423;;;;
2022/02/27 07:03:53;;;;;;;5.2;2.3;;;;;;;2.19;57.4082;948.6055;;;;
2022/02/27 07:06:18;;;;;;;4.2;1.8;;;;;;;2.59;54.68359;948.5478;;;;
2022/02/27 07:08:48;;;;;;;6.5;2.1;;;;;;;2.36;54.6748;948.5421;;;;
2022/02/27 07:11:15;;;;;;;25.5;22.9;;;;;;;2.56;54.44336;948.4895;;;;
2022/02/27 07:13:48;;;;;;;4.3;2.8;;;;;;;2.85;55.15332;948.5767;;;;
2022/02/27 07:16:26;;;;;;;6.4;2.6;;;;;;;2.56;53.46875;948.5342;;;;
2022/02/27 07:18:53;;;;;;;5.8;2.9;;;;;;;2.53;54.67578;948.5011;;;;
2022/02/27 07:21:28;;;;;;;5.9;3.1;;;;;;;2.29;55.08105;948.4943;;;;
2022/02/27 07:23:57;;;;;;;6.7;3.5;;;;;;;1.87;57.07422;948.6124;;;;
2022/02/27 07:26:32;;;;;;;5.9;3.2;;;;;;;2.18;56.8916;948.5762;;;;
2022/02/27 07:28:59;;;;;;;5.9;2.6;;;;;;;2.52;54.44922;948.5789;;;;
2022/02/27 07:31:32;;;;;;;3.3;2.4;;;;;;;2.94;53.32617;948.5861;;;;
2022/02/27 07:34:00;;;;;;;5.1;2.9;;;;;;;3.67;51.67578;948.5757;;;;
2022/02/27 07:36:30;;;;;;;4.5;2.2;;;;;;;3.53;50.59082;948.5532;;;;
2022/02/27 07:38:56;;;;;;;7.8;3.2;;;;;;;3.9;51.19824;948.5463;;;;
2022/02/27 07:41:27;;;;;;;5.5;2.8;;;;;;;4.86;48.74316;948.5181;;;;
2022/02/27 07:43:57;;;;;;;5.9;2.6;;;;;;;4.49;48.72461;948.6047;;;;
2022/02/27 07:46:25;;;;;;;8.5;2.9;;;;;;;4.05;50.96973;948.6133;;;;
2022/02/27 07:48:55;;;;;;;4.6;2.2;;;;;;;4.32;50.02148;948.6088;;;;
2022/02/27 07:51:27;;;;;;;4.9;1.8;;;;;;;5.53;47.56738;948.6057;;;;
2022/02/27 07:53:56;;;;;;;10.5;2.4;;;;;;;5.03;48.30176;948.577;;;;
2022/02/27 07:56:25;;;;;;;7.1;2.1;;;;;;;4.96;48.50781;948.6169;;;;
2022/02/27 07:58:57;;;;;;;8.4;2.6;;;;;;;5.62;46.92383;948.5722;;;;
2022/02/27 08:01:26;;;;;;;6.3;2.1;;;;;;;5.07;47.04297;948.5851;;;;
2022/02/27 08:03:50;;;;;;;7.6;2.4;;;;;;;4.93;48.10938;948.6262;;;;
2022/02/27 08:06:15;;;;;;;5.8;2.3;;;;;;;4.71;48.83984;948.5944;;;;
2022/02/27 08:08:44;;;;;;;4.6;2.2;;;;;;;3.91;49.68164;948.6493;;;;
2022/02/27 08:11:14;;;;;;;4;2.6;;;;;;;4.45;49.72168;948.6365;;;;
2022/02/27 08:13:43;;;;;;;4.2;2;;;;;;;5.54;46.91406;948.5566;;;;
2022/02/27 08:16:11;;;;;;;4.8;2.2;;;;;;;6.03;45.10449;948.5106;;;;
2022/02/27 08:18:36;;;;;;;5.1;2.3;;;;;;;6.18;45.24414;948.4291;;;;
2022/02/27 08:21:08;;;;;;;5.7;2.3;;;;;;;5.74;44.58887;948.4799;;;;
2022/02/27 08:23:33;;;;;;;4.8;2.2;;;;;;;6.4;43.20898;948.41;;;;
2022/02/27 08:25:59;;;;;;;8.2;2.2;;;;;;;7.24;41.35645;948.3284;;;;
2022/02/27 08:28:23;;;;;;;5;1.8;;;;;;;7.61;40.15625;948.2225;;;;
2022/02/27 08:30:49;;;;;;;7.1;1.7;;;;;;;9.04;38.23047;948.2732;;;;
2022/02/27 08:33:14;;;;;;;3.4;1.7;;;;;;;8.45;38.29102;948.3411;;;;
2022/02/27 08:35:40;;;;;;;5.3;1.9;;;;;;;10.98;33.75098;948.2946;;;;
2022/02/27 08:38:05;;;;;;;5.7;2;;;;;;;10.74;33.7666;948.2133;;;;
2022/02/27 08:40:30;;;;;;;3.5;2;;;;;;;10.26;34.8584;948.2857;;;;
2022/02/27 08:42:59;;;;;;;5.4;2.1;;;;;;;9.64;34.64844;948.2769;;;;
2022/02/27 08:45:25;;;;;;;4.4;2;;;;;;;12.43;31.59277;948.2342;;;;
2022/02/27 08:47:51;;;;;;;6.1;2;;;;;;;12.56;30.01953;948.2286;;;;
2022/02/27 08:50:20;;;;;;;3;1.6;;;;;;;11.05;31.7207;948.144;;;;
2022/02/27 08:52:47;;;;;;;2.8;1.7;;;;;;;12.87;30.23535;948.1905;;;;
2022/02/27 08:55:18;;;;;;;3;1.8;;;;;;;15.13;27.24219;948.0991;;;;
2022/02/27 08:57:46;;;;;;;3.1;1.7;;;;;;;15.15;25.40918;948.1217;;;;
2022/02/27 09:00:11;;;;;;;3.1;1.8;;;;;;;11.37;30.76074;948.1237;;;;
2022/02/27 09:02:44;;;;;;;4.6;1.8;;;;;;;14.27;28.8252;948.1025;;;;
2022/02/27 09:05:23;;;;;;;2.5;1.4;;;;;;;14.46;26.98145;948.1692;;;;
2022/02/27 09:07:47;;;;;;;3.5;1.8;;;;;;;11.5;30.72461;948.2153;;;;
2022/02/27 09:10:26;;;;;;;2.2;1.6;;;;;;;13.77;28.44727;948.1325;;;;
2022/02/27 09:12:53;;;;;;;2.8;1.9;;;;;;;14.68;27.91797;948.1035;;;;
2022/02/27 09:15:19;;;;;;;2.9;1.9;;;;;;;15.31;27.53125;947.9988;;;;
2022/02/27 09:17:50;;;;;;;4.1;1.4;;;;;;;15.15;26.36719;948.0631;;;;
2022/02/27 09:20:24;;;;;;;3;1.4;;;;;;;16.58;25.19141;948.0547;;;;
2022/02/27 09:22:51;;;;;;;2.8;1.5;;;;;;;16.84;25.27637;948.011;;;;
2022/02/27 09:25:18;;;;;;;2.9;1.5;;;;;;;17.37;24.27344;947.8795;;;;
2022/02/27 09:27:45;;;;;;;3.2;1.7;;;;;;;16.4;25.5166;947.9246;;;;
2022/02/27 09:30:12;;;;;;;4.1;1.9;;;;;;;16.64;25.46094;947.8686;;;;
2022/02/27 09:32:43;;;;;;;3.5;1.6;;;;;;;16.78;24.99512;947.8763;;;;
2022/02/27 09:35:13;;;;;;;2.6;1.7;;;;;;;17.19;24.78613;947.9478;;;;
2022/02/27 09:37:39;;;;;;;3.1;1.6;;;;;;;17.73;23.67969;947.8515;;;;
2022/02/27 09:40:14;;;;;;;3.1;1.7;;;;;;;16.6;25.37793;947.861;;;;
2022/02/27 09:42:39;;;;;;;3.8;1.4;;;;;;;16.19;25.875;947.9172;;;;
2022/02/27 09:45:04;;;;;;;2.5;1.6;;;;;;;15.91;26.72461;947.9142;;;;
2022/02/27 09:47:29;;;;;;;3;1.5;;;;;;;16.49;25.5459;947.9009;;;;
2022/02/27 09:49:56;;;;;;;2.5;1.9;;;;;;;14.58;29.0293;947.9316;;;;
2022/02/27 09:52:21;;;;;;;2.6;1.6;;;;;;;14.95;27.00098;947.9402;;;;
2022/02/27 09:54:49;;;;;;;3.3;1.5;;;;;;;13.81;29.41504;947.98;;;;
2022/02/27 09:57:14;;;;;;;3.2;1.5;;;;;;;13.14;30.18555;947.8616;;;;
2022/02/27 09:59:40;;;;;;;3.1;1.6;;;;;;;13.03;30.88965;947.947;;;;
2022/02/27 10:02:05;;;;;;;1.8;1.2;;;;;;;12.84;31.3125;947.9485;;;;
2022/02/27 10:04:30;;;;;;;2.8;1.7;;;;;;;12.27;31.66113;948.0289;;;;
2022/02/27 10:06:56;;;;;;;3.3;1.8;;;;;;;11.62;32.88477;948.0419;;;;
2022/02/27 10:10:51;;;;;;;4.7;1.8;;;;;;;11.94;33.7793;948.0068;;;;
2022/02/27 10:13:06;;;;;;;2.8;1.8;;;;;;;12.23;32.09375;948.0025;;;;
2022/02/27 10:15:40;;;;;;;2.2;1.7;;;;;;;12.24;32.87402;947.9924;;;;
2022/02/27 10:18:11;;;;;;;3.7;2;;;;;;;12.32;33.5918;947.9708;;;;
2022/02/27 10:20:35;;;;;;;3.7;2;;;;;;;12.84;32.46094;947.9255;;;;
2022/02/27 10:23:04;;;;;;;5.3;2;;;;;;;11.94;34.77637;947.9255;;;;
2022/02/27 10:25:28;;;;;;;3.7;1.8;;;;;;;11.85;34.72363;947.9156;;;;
2022/02/27 10:27:53;;;;;;;3.4;2.1;;;;;;;11.61;35.98535;947.9266;;;;
2022/02/27 10:30:24;;;;;;;2.9;2.1;;;;;;;11.09;37.10938;947.8619;;;;
2022/02/27 10:32:53;;;;;;;4.2;2;;;;;;;11.12;37.27148;947.8047;;;;
2022/02/27 10:35:18;;;;;;;2.9;2.2;;;;;;;10.48;39.92188;947.8904;;;;
2022/02/27 10:37:43;;;;;;;3.3;2.1;;;;;;;10.7;38.54883;947.8555;;;;
2022/02/27 10:40:17;;;;;;;2.9;2.2;;;;;;;11.02;38.34863;947.7879;;;;
2022/02/27 10:42:45;;;;;;;3.8;2.1;;;;;;;11.23;36.77734;947.7355;;;;
2022/02/27 10:45:16;;;;;;;5.8;2.4;;;;;;;12.1;35.20215;947.7891;;;;
2022/02/27 10:47:44;;;;;;;3.3;2.1;;;;;;;12.21;35.02734;947.7304;;;;
2022/02/27 10:50:13;;;;;;;3.4;2.2;;;;;;;12.74;34.20898;947.6981;;;;
2022/02/27 10:52:42;;;;;;;2.9;2.1;;;;;;;12.91;33.79785;947.6644;;;;
2022/02/27 10:55:03;;;;;;;2.9;2.5;;;;;;;13.32;33.46191;947.6082;;;;
2022/02/27 10:57:28;;;;;;;4.6;2.4;;;;;;;13.87;33.48047;947.5952;;;;
2022/02/27 10:59:53;;;;;;;4.2;2.2;;;;;;;13.99;33.05273;947.5197;;;;
2022/02/27 11:02:21;;;;;;;3.9;2.2;;;;;;;12.81;35.23633;947.5027;;;;
2022/02/27 11:04:49;;;;;;;5.8;2.9;;;;;;;12.58;35.63086;947.4467;;;;
2022/02/27 11:07:14;;;;;;;4.5;2.6;;;;;;;11.83;36.95508;947.5728;;;;
2022/02/27 11:09:41;;;;;;;4.3;2.4;;;;;;;12.7;35.2041;947.5304;;;;
2022/02/27 11:12:06;;;;;;;4;2.5;;;;;;;13.58;33.6084;947.4877;;;;
2022/02/27 11:14:33;;;;;;;3.9;2.5;;;;;;;13.66;33.4082;947.4083;;;;
2022/02/27 11:17:00;;;;;;;4.1;2.8;;;;;;;13.95;32.77441;947.4167;;;;
2022/02/27 11:19:28;;;;;;;3.7;2.6;;;;;;;14.2;32.71191;947.3234;;;;
2022/02/27 11:21:52;;;;;;;5.5;2.8;;;;;;;13.74;33.43652;947.3772;;;;
2022/02/27 11:24:20;;;;;;;4.3;2.5;;;;;;;14.23;32.10352;947.2544;;;;
2022/02/27 11:26:45;;;;;;;4.5;2.6;;;;;;;13.54;34.39844;947.224;;;;
2022/02/27 11:29:12;;;;;;;4.4;2.5;;;;;;;13.43;33.55078;947.2642;;;;
2022/02/27 11:31:37;;;;;;;8.7;3.9;;;;;;;13.84;34.04297;947.1833;;;;
2022/02/27 11:34:05;;;;;;;3.4;2.3;;;;;;;14.33;32.42188;947.0662;;;;
2022/02/27 11:36:30;;;;;;;4.1;2.5;;;;;;;14.87;30.74414;947.0975;;;;
2022/02/27 11:38:55;;;;;;;6.8;2.6;;;;;;;15.28;29.95313;947.0557;;;;
2022/02/27 11:41:22;;;;;;;8.8;3.8;;;;;;;15.13;30.76172;946.9808;;;;
2022/02/27 11:43:50;;;;;;;5.1;3.2;;;;;;;16.46;29.29297;946.9473;;;;
2022/02/27 11:46:11;;;;;;;6;3;;;;;;;15.47;31.79102;946.9775;;;;
2022/02/27 11:48:39;;;;;;;6.2;3.2;;;;;;;14.52;31.19141;946.8625;;;;
2022/02/27 11:51:06;;;;;;;3.5;2.8;;;;;;;13.65;33.39551;946.8879;;;;
2022/02/27 11:53:31;;;;;;;3.9;2.8;;;;;;;14.54;31.05566;946.882;;;;
2022/02/27 11:55:59;;;;;;;2.9;2.6;;;;;;;15.62;29.65332;946.8535;;;;
2022/02/27 11:58:29;;;;;;;4;2.6;;;;;;;15.62;31.39746;946.8656;;;;
2022/02/27 12:00:58;;;;;;;3.2;2.7;;;;;;;14.55;31.70117;946.7682;;;;
2022/02/27 12:03:19;;;;;;;3.4;2.8;;;;;;;15.35;29.76172;946.7736;;;;
2022/02/27 12:05:44;;;;;;;4.3;3;;;;;;;16.51;29.58691;946.7704;;;;
2022/02/27 12:08:14;;;;;;;3.6;2.5;;;;;;;16.61;28.49316;946.6989;;;;
2022/02/27 12:10:38;;;;;;;3.9;2.9;;;;;;;17.23;27.9541;946.6964;;;;
2022/02/27 12:13:04;;;;;;;4;2.7;;;;;;;17.36;26.73242;946.6719;;;;
2022/02/27 12:15:37;;;;;;;3.4;2.2;;;;;;;18.79;25.09766;946.5797;;;;
2022/02/27 12:18:05;;;;;;;4;2.5;;;;;;;18.84;25.47266;946.5828;;;;
2022/02/27 12:20:31;;;;;;;3.4;2.7;;;;;;;18.4;25.85449;946.4568;;;;
2022/02/27 12:22:57;;;;;;;3.9;2.3;;;;;;;17.31;26.25488;946.4724;;;;
2022/02/27 12:25:23;;;;;;;4;2.3;;;;;;;18.3;25.03516;946.4398;;;;
2022/02/27 12:27:48;;;;;;;6;3.1;;;;;;;18.74;25.19922;946.4542;;;;
2022/02/27 12:30:20;;;;;;;3.5;2.5;;;;;;;18.57;25.47949;946.4575;;;;
2022/02/27 12:32:48;;;;;;;4.9;2.3;;;;;;;17.52;25.97656;946.4316;;;;
2022/02/27 12:35:17;;;;;;;3.8;2.4;;;;;;;17.17;27.06934;946.4225;;;;
2022/02/27 12:37:44;;;;;;;3.7;2.4;;;;;;;16.62;27.30078;946.4436;;;;
2022/02/27 12:40:09;;;;;;;3.9;2.3;;;;;;;16.83;26.93164;946.4342;;;;
2022/02/27 12:42:34;;;;;;;2.8;2.5;;;;;;;17.31;26.76367;946.4498;;;;
2022/02/27 12:45:02;;;;;;;3.2;2.2;;;;;;;17.88;25.5332;946.4306;;;;
2022/02/27 12:47:27;;;;;;;3.8;2.2;;;;;;;18.91;24.69727;946.4207;;;;
2022/02/27 12:52:17;;;;;;;3;2.2;;;;;;;18.19;25.63281;946.4775;;;;
2022/02/27 12:54:43;;;;;;;3.1;2;;;;;;;19.67;22.93262;946.467;;;;
2022/02/27 12:57:10;;;;;;;3.8;2.5;;;;;;;18.41;24.63379;946.4149;;;;
2022/02/27 12:59:34;;;;;;;3.3;2.3;;;;;;;19.33;23.42676;946.4023;;;;
2022/02/27 13:02:02;;;;;;;3.2;2.1;;;;;;;19.26;23.19141;946.4281;;;;
2022/02/27 13:04:31;;;;;;;4.1;2.2;;;;;;;19.55;23.71875;946.5101;;;;
2022/02/27 13:06:56;;;;;;;8.2;3.6;;;;;;;20.86;21.91895;946.3755;;;;
2022/02/27 13:09:23;;;;;;;2.9;2.4;;;;;;;20.46;23.1377;946.3781;;;;
2022/02/27 13:11:48;;;;;;;3.1;2;;;;;;;18.82;24.27344;946.4238;;;;
2022/02/27 13:14:13;;;;;;;4.1;3.1;;;;;;;20.48;22.12207;946.2126;;;;
2022/02/27 13:16:39;;;;;;;3.4;2.4;;;;;;;22;21.37793;946.3152;;;;
2022/02/27 13:19:07;;;;;;;2.9;2.4;;;;;;;21.68;21.13965;946.3329;;;;
2022/02/27 13:21:33;;;;;;;3.3;2.6;;;;;;;21.16;21.96875;946.3014;;;;
2022/02/27 13:29:35;;;;;;;2.8;2.4;;;;;;;20.86;21.96484;946.3114;;;;
2022/02/27 13:31:42;;;;;;;3.5;2.6;;;;;;;20.04;22.28613;946.3083;;;;
2022/02/27 13:34:08;;;;;;;2.5;2.2;;;;;;;20.62;22.04688;946.1921;;;;
2022/02/27 13:36:33;;;;;;;4.7;2.5;;;;;;;20.19;22.25879;946.2123;;;;
2022/02/27 13:38:58;;;;;;;3.1;2.2;;;;;;;20.62;21.90723;946.1975;;;;
2022/02/27 13:41:24;;;;;;;3.3;2.6;;;;;;;19.95;23.20313;946.1516;;;;
2022/02/27 13:43:51;;;;;;;3.9;2.5;;;;;;;19.17;23.9541;946.2269;;;;
2022/02/27 13:46:14;;;;;;;3.7;2.2;;;;;;;18.25;25.06738;946.2088;;;;
2022/02/27 13:48:47;;;;;;;3.5;2.5;;;;;;;18.58;24.07422;946.1573;;;;
2022/02/27 13:51:13;;;;;;;3.9;2.7;;;;;;;18.35;24.96777;946.1774;;;;
2022/02/27 13:53:39;;;;;;;4.7;2.7;;;;;;;19.26;22.93457;946.1769;;;;
2022/02/27 13:56:04;;;;;;;3.6;2.6;;;;;;;19.24;23.90039;946.1053;;;;
2022/02/27 13:58:30;;;;;;;3.6;2.4;;;;;;;18.07;25.23145;946.1236;;;;
2022/02/27 14:01:06;;;;;;;3.6;2.7;;;;;;;19.36;23.05664;946.1281;;;;
2022/02/27 14:03:33;;;;;;;3.8;2.5;;;;;;;19.53;22.90234;946.0172;;;;
2022/02/27 14:05:58;;;;;;;4.2;2.7;;;;;;;17.05;26.22754;946.1275;;;;
2022/02/27 14:08:26;;;;;;;3.3;2.9;;;;;;;17.43;26.41211;946.1042;;;;
2022/02/27 14:10:51;;;;;;;3.5;2.8;;;;;;;16.87;27.52539;946.1027;;;;
2022/02/27 14:13:20;;;;;;;4.4;2.9;;;;;;;18.55;25.0957;946.0849;;;;
2022/02/27 14:15:50;;;;;;;4.1;2.9;;;;;;;17.98;25.7373;946.0416;;;;
2022/02/27 14:18:15;;;;;;;3.3;2.7;;;;;;;18.5;25.23242;946.1024;;;;
2022/02/27 14:20:48;;;;;;;4.7;2.8;;;;;;;17.03;26.06348;946.0865;;;;
2022/02/27 14:23:13;;;;;;;3.7;2.8;;;;;;;16.15;27.49219;946.0946;;;;
2022/02/27 14:25:40;;;;;;;3.5;3;;;;;;;15.28;29.01855;946.157;;;;
2022/02/27 14:28:10;;;;;;;4.3;3.1;;;;;;;15.56;28.28613;946.1245;;;;
2022/02/27 14:30:41;;;;;;;4.7;3.6;;;;;;;15.47;28.25684;946.0552;;;;
2022/02/27 14:33:12;;;;;;;3.4;3.1;;;;;;;15.69;29.32324;946.1086;;;;
2022/02/27 14:35:38;;;;;;;3.6;3;;;;;;;16.21;28.62891;946.0955;;;;
2022/02/27 14:38:06;;;;;;;4.4;3;;;;;;;15.78;27.42188;946.0622;;;;
2022/02/27 14:40:35;;;;;;;4.8;3.3;;;;;;;14.78;29.94238;946.152;;;;
2022/02/27 14:43:00;;;;;;;3.7;3.1;;;;;;;14.23;31.11426;946.1273;;;;
2022/02/27 14:45:27;;;;;;;5.1;3.3;;;;;;;13.39;31.78906;946.1409;;;;
2022/02/27 14:47:52;;;;;;;4.3;3.3;;;;;;;12.93;32.76563;946.1976;;;;
2022/02/27 14:50:20;;;;;;;5.5;3.9;;;;;;;12.64;32.35449;946.1608;;;;
2022/02/27 14:52:45;;;;;;;4.8;3.5;;;;;;;12.94;32.27344;946.0588;;;;
2022/02/27 14:55:17;;;;;;;5;3.6;;;;;;;12.07;34.27051;946.0801;;;;
2022/02/27 14:57:46;;;;;;;4.7;3.1;;;;;;;12.48;33.4668;946.1325;;;;
2022/02/27 15:00:10;;;;;;;5.3;3.6;;;;;;;13.53;32.55859;946.0595;;;;
2022/02/27 15:02:34;;;;;;;5.2;3.5;;;;;;;13.34;32.17578;946.1588;;;;
2022/02/27 15:05:02;;;;;;;4.3;3.3;;;;;;;11.97;34.57227;946.1332;;;;
2022/02/27 15:07:29;;;;;;;5.2;3.6;;;;;;;11.81;35.44141;946.2411;;;;
2022/02/27 15:09:52;;;;;;;5.5;3.7;;;;;;;12.68;33.57324;946.2123;;;;
2022/02/27 15:12:18;;;;;;;4.5;3.6;;;;;;;11.71;35.67383;946.2247;;;;
2022/02/27 15:14:45;;;;;;;3.9;3.5;;;;;;;12.25;34.5498;946.2039;;;;
2022/02/27 15:17:15;;;;;;;4.4;3.4;;;;;;;12;34.35742;946.2863;;;;
2022/02/27 15:19:40;;;;;;;4.3;3.6;;;;;;;12.79;32.65234;946.2042;;;;
2022/02/27 15:22:09;;;;;;;4.4;3.4;;;;;;;13.1;31.86035;946.2722;;;;
2022/02/27 15:24:34;;;;;;;4.9;3.3;;;;;;;13.48;31.71484;946.2566;;;;
2022/02/27 15:27:01;;;;;;;4.6;3.6;;;;;;;13.86;30.90332;946.2724;;;;
2022/02/27 15:29:26;;;;;;;4.7;3.5;;;;;;;14.01;30.71777;946.249;;;;
2022/02/27 15:31:52;;;;;;;5.3;3.8;;;;;;;14.46;29.78125;946.2338;;;;
2022/02/27 15:34:17;;;;;;;4.3;3.4;;;;;;;14.2;29.92578;946.2926;;;;
2022/02/27 15:36:44;;;;;;;4.8;3.9;;;;;;;13.52;31.01758;946.3172;;;;
2022/02/27 15:39:09;;;;;;;4.9;3.8;;;;;;;12.53;32.40332;946.3553;;;;
2022/02/27 15:41:36;;;;;;;4.6;3.6;;;;;;;12.53;32.77051;946.3745;;;;
2022/02/27 15:44:01;;;;;;;5.3;3.9;;;;;;;12.31;33.01758;946.4291;;;;
2022/02/27 15:46:28;;;;;;;4.9;3.9;;;;;;;12.06;33.54785;946.4574;;;;
2022/02/27 15:48:53;;;;;;;4.8;3.7;;;;;;;11.95;34.11328;946.5097;;;;
2022/02/27 15:51:20;;;;;;;4.8;3.7;;;;;;;11.64;34.61523;946.5458;;;;